createdAt,value
2019-03-20T00:00:41.969Z,7.40
2019-03-20T00:02:48.586Z,6.67
2019-03-20T00:04:55.017Z,7.63
2019-03-20T00:07:01.465Z,7.13
2019-03-20T00:09:10.362Z,7.87
2019-03-20T00:11:16.956Z,8.00
2019-03-20T00:13:23.438Z,11.27
2019-03-20T00:15:29.901Z,11.07
2019-03-20T00:17:37.370Z,9.27
2019-03-20T00:19:43.762Z,8.93
2019-03-20T00:21:51.016Z,7.67
2019-03-20T00:23:57.598Z,7.00
2019-03-20T00:26:04.154Z,7.77
2019-03-20T00:28:10.637Z,8.20
2019-03-20T00:30:21.440Z,7.10
2019-03-20T00:32:27.855Z,6.93
2019-03-20T00:34:35.322Z,6.97
2019-03-20T00:36:42.099Z,7.60
2019-03-20T00:38:48.783Z,7.20
2019-03-20T00:40:55.313Z,6.97
2019-03-20T00:43:03.056Z,6.87
2019-03-20T00:45:16.268Z,7.00
2019-03-20T00:47:23.460Z,7.77
2019-03-20T00:49:29.814Z,6.67
2019-03-20T00:51:36.484Z,7.43
2019-03-20T00:53:46.842Z,6.77
2019-03-20T00:55:54.643Z,7.87
2019-03-20T00:58:01.014Z,7.33
2019-03-20T01:00:18.204Z,7.30
2019-03-20T01:02:26.112Z,6.90
2019-03-20T01:04:32.880Z,6.90
2019-03-20T01:06:39.268Z,7.17
2019-03-20T01:08:46.005Z,7.33
2019-03-20T01:10:52.703Z,7.23
2019-03-20T01:12:59.247Z,6.70
2019-03-20T01:15:07.971Z,6.57
2019-03-20T01:17:14.340Z,6.97
2019-03-20T01:19:20.898Z,6.80
2019-03-20T01:21:28.945Z,6.63
2019-03-20T01:23:35.369Z,7.70
2019-03-20T01:25:41.965Z,7.23
2019-03-20T01:27:48.293Z,6.83
2019-03-20T01:29:57.686Z,6.30
2019-03-20T01:32:04.264Z,6.17
2019-03-20T01:34:10.859Z,5.40
2019-03-20T01:36:17.539Z,5.97
2019-03-20T01:38:25.337Z,6.90
2019-03-20T01:40:32.601Z,7.53
2019-03-20T01:42:40.268Z,6.60
2019-03-20T01:44:46.700Z,6.33
2019-03-20T01:46:53.295Z,6.07
2019-03-20T01:48:59.701Z,6.60
2019-03-20T01:51:22.972Z,6.90
2019-03-20T01:53:29.429Z,7.40
2019-03-20T01:55:35.894Z,7.37
2019-03-20T01:57:42.578Z,7.33
2019-03-20T01:59:49.293Z,6.93
2019-03-20T02:01:55.703Z,6.87
2019-03-20T02:04:03.392Z,6.83
2019-03-20T02:06:09.854Z,7.77
2019-03-20T02:08:16.950Z,6.33
2019-03-20T02:10:23.397Z,6.10
2019-03-20T02:12:32.879Z,6.87
2019-03-20T02:14:40.110Z,7.10
2019-03-20T02:16:46.482Z,6.60
2019-03-20T02:18:53.346Z,6.93
2019-03-20T02:21:01.465Z,7.27
2019-03-20T02:23:08.024Z,7.00
2019-03-20T02:25:15.463Z,7.13
2019-03-20T02:27:21.969Z,8.07
2019-03-20T02:29:28.329Z,7.13
2019-03-20T02:31:34.703Z,7.17
2019-03-20T02:33:41.239Z,7.40
2019-03-20T02:35:51.962Z,7.20
2019-03-20T02:37:55.952Z,7.73
2019-03-20T02:40:02.516Z,7.33
2019-03-20T02:42:09.548Z,7.27
2019-03-20T02:44:18.121Z,7.67
2019-03-20T02:46:24.780Z,7.10
2019-03-20T02:48:31.144Z,6.93
2019-03-20T02:50:37.709Z,7.30
2019-03-20T02:52:44.308Z,7.80
2019-03-20T02:54:50.739Z,7.67
2019-03-20T02:56:57.204Z,7.50
2019-03-20T02:59:04.188Z,7.63
2019-03-20T03:01:10.757Z,6.50
2019-03-20T03:03:17.418Z,7.23
2019-03-20T03:05:24.193Z,7.47
2019-03-20T03:07:31.154Z,6.97
2019-03-20T03:09:37.533Z,7.27
2019-03-20T03:11:44.502Z,7.57
2019-03-20T03:13:50.870Z,8.77
2019-03-20T03:15:57.228Z,8.53
2019-03-20T03:18:03.998Z,7.20
2019-03-20T03:20:17.462Z,7.77
2019-03-20T03:22:23.790Z,7.73
2019-03-20T03:24:31.488Z,9.83
2019-03-20T03:26:37.849Z,10.47
2019-03-20T03:28:44.612Z,10.00
2019-03-20T03:30:50.982Z,10.33
2019-03-20T03:32:58.175Z,10.77
2019-03-20T03:35:08.536Z,10.00
2019-03-20T03:37:15.082Z,9.27
2019-03-20T03:39:22.167Z,8.73
2019-03-20T03:41:28.516Z,8.83
2019-03-20T03:43:34.880Z,7.73
2019-03-20T03:45:41.919Z,8.00
2019-03-20T03:47:48.635Z,10.47
2019-03-20T03:49:56.009Z,7.93
2019-03-20T03:52:02.885Z,9.63
2019-03-20T03:54:09.152Z,9.87
2019-03-20T03:56:16.934Z,9.50
2019-03-20T03:58:23.322Z,9.20
2019-03-20T04:00:30.103Z,9.23
2019-03-20T04:02:37.904Z,8.60
2019-03-20T04:04:44.564Z,8.57
2019-03-20T04:06:50.999Z,7.83
2019-03-20T04:08:57.588Z,8.00
2019-03-20T04:13:16.637Z,9.00
2019-03-20T04:15:23.010Z,8.53
2019-03-20T04:17:29.584Z,9.30
2019-03-20T04:19:37.911Z,8.93
2019-03-20T04:21:44.041Z,7.77
2019-03-20T04:23:50.830Z,8.40
2019-03-20T04:25:58.730Z,10.67
2019-03-20T04:28:05.288Z,12.40
2019-03-20T04:30:20.014Z,11.47
2019-03-20T04:32:26.523Z,10.37
2019-03-20T04:34:33.291Z,9.43
2019-03-20T04:36:47.485Z,8.93
2019-03-20T04:38:47.755Z,9.13
2019-03-20T04:40:54.111Z,9.53
2019-03-20T04:43:00.653Z,10.27
2019-03-20T04:45:13.512Z,9.30
2019-03-20T04:47:21.503Z,10.07
2019-03-20T04:49:28.088Z,9.77
2019-03-20T04:51:34.539Z,9.70
2019-03-20T04:53:41.412Z,10.50
2019-03-20T04:55:48.363Z,10.00
2019-03-20T04:57:54.757Z,11.47
2019-03-20T05:00:02.664Z,16.07
2019-03-20T05:02:09.705Z,27.80
2019-03-20T05:04:16.289Z,23.73
2019-03-20T05:06:24.485Z,15.93
2019-03-20T05:08:31.163Z,12.00
2019-03-20T05:10:37.529Z,9.40
2019-03-20T05:12:44.209Z,8.80
2019-03-20T05:14:50.880Z,9.00
2019-03-20T05:16:59.181Z,10.93
2019-03-20T05:19:05.906Z,15.80
2019-03-20T05:21:12.621Z,20.37
2019-03-20T05:23:18.982Z,19.97
2019-03-20T05:25:25.341Z,21.57
2019-03-20T05:27:32.005Z,21.30
2019-03-20T05:29:38.474Z,22.87
2019-03-20T05:31:44.855Z,23.07
2019-03-20T05:33:51.960Z,19.57
2019-03-20T05:35:58.590Z,19.57
2019-03-20T05:38:04.964Z,19.40
2019-03-20T05:40:17.038Z,17.07
2019-03-20T05:42:23.416Z,14.73
2019-03-20T05:44:29.976Z,14.20
2019-03-20T05:46:36.466Z,12.90
2019-03-20T05:48:43.426Z,11.93
2019-03-20T05:50:49.786Z,13.70
2019-03-20T05:53:00.162Z,15.40
2019-03-20T05:55:08.463Z,13.10
2019-03-20T05:57:14.807Z,14.00
2019-03-20T05:59:21.296Z,13.70
2019-03-20T06:01:27.643Z,14.10
2019-03-20T06:03:36.865Z,13.33
2019-03-20T06:05:46.045Z,13.53
2019-03-20T06:07:52.357Z,13.10
2019-03-20T06:10:00.481Z,14.43
2019-03-20T06:12:06.885Z,15.27
2019-03-20T06:14:13.285Z,13.73
2019-03-20T06:16:20.264Z,17.50
2019-03-20T06:18:28.342Z,20.10
2019-03-20T06:20:42.955Z,22.50
2019-03-20T06:22:49.395Z,19.93
2019-03-20T06:24:55.754Z,21.97
2019-03-20T06:27:04.276Z,22.07
2019-03-20T06:29:10.608Z,18.57
2019-03-20T06:31:18.793Z,20.07
2019-03-20T06:33:25.099Z,19.13
2019-03-20T06:35:33.456Z,18.70
2019-03-20T06:37:40.155Z,19.03
2019-03-20T06:39:46.535Z,17.80
2019-03-20T06:41:53.082Z,17.80
2019-03-20T06:43:59.455Z,19.37
2019-03-20T06:46:06.044Z,19.30
2019-03-20T06:48:12.794Z,19.97
2019-03-20T06:50:21.394Z,20.53
2019-03-20T06:52:27.878Z,17.77
2019-03-20T06:54:35.677Z,17.13
2019-03-20T06:56:42.456Z,17.20
2019-03-20T06:58:50.452Z,16.17
2019-03-20T07:01:09.725Z,17.90
2019-03-20T07:03:51.934Z,27.20
2019-03-20T07:06:11.764Z,15.73
2019-03-20T07:08:19.115Z,13.27
2019-03-20T07:10:41.593Z,14.77
2019-03-20T07:12:48.804Z,13.37
2019-03-20T07:14:55.441Z,11.37
2019-03-20T07:17:02.045Z,13.03
2019-03-20T07:19:08.745Z,13.50
2019-03-20T07:21:18.661Z,12.87
2019-03-20T07:23:24.803Z,14.00
2019-03-20T07:25:31.157Z,12.40
2019-03-20T07:27:37.654Z,11.53
2019-03-20T07:29:46.974Z,11.70
2019-03-20T07:31:53.554Z,9.93
2019-03-20T07:34:00.220Z,10.07
2019-03-20T07:36:07.012Z,8.43
2019-03-20T07:38:14.261Z,10.70
2019-03-20T07:40:22.066Z,8.80
2019-03-20T07:42:29.444Z,9.07
2019-03-20T07:44:35.922Z,7.43
2019-03-20T07:46:43.774Z,5.77
2019-03-20T07:48:51.833Z,6.13
2019-03-20T07:50:58.184Z,6.97
2019-03-20T07:53:04.846Z,5.97
2019-03-20T07:55:11.515Z,5.80
2019-03-20T07:57:17.880Z,3.77
2019-03-20T07:59:24.732Z,4.57
2019-03-20T08:01:31.116Z,4.17
2019-03-20T08:03:37.602Z,4.80
2019-03-20T08:05:44.040Z,3.37
2019-03-20T08:07:51.537Z,4.10
2019-03-20T08:09:57.907Z,3.60
2019-03-20T08:12:04.363Z,4.30
2019-03-20T08:14:11.032Z,4.20
2019-03-20T08:16:17.507Z,3.70
2019-03-20T08:18:24.085Z,2.37
2019-03-20T08:20:31.840Z,2.73
2019-03-20T08:22:38.233Z,2.37
2019-03-20T08:24:44.904Z,2.87
2019-03-20T08:26:51.355Z,2.57
2019-03-20T08:28:58.028Z,3.10
2019-03-20T08:31:05.083Z,2.53
2019-03-20T08:33:11.465Z,2.40
2019-03-20T08:35:17.933Z,2.00
2019-03-20T08:37:24.499Z,2.50
2019-03-20T08:39:35.055Z,2.90
2019-03-20T08:41:41.912Z,2.73
2019-03-20T08:43:49.953Z,3.10
2019-03-20T08:45:57.199Z,3.13
2019-03-20T08:48:03.979Z,2.43
2019-03-20T08:50:23.432Z,2.90
2019-03-20T08:52:30.044Z,2.80
2019-03-20T08:54:36.583Z,2.13
2019-03-20T08:56:44.474Z,2.37
2019-03-20T08:58:51.592Z,2.37
2019-03-20T09:00:58.315Z,2.27
2019-03-20T09:03:05.358Z,2.80
2019-03-20T09:05:14.231Z,2.33
2019-03-20T09:07:20.532Z,1.90
2019-03-20T09:09:29.046Z,1.50
2019-03-20T09:11:35.502Z,2.03
2019-03-20T09:13:42.977Z,2.10
2019-03-20T09:15:49.922Z,2.30
2019-03-20T09:17:56.362Z,1.40
2019-03-20T09:20:02.676Z,1.70
2019-03-20T09:22:09.252Z,2.03
2019-03-20T09:24:16.324Z,1.20
2019-03-20T09:26:23.298Z,1.80
2019-03-20T09:28:29.675Z,1.63
2019-03-20T09:30:36.034Z,1.37
2019-03-20T09:32:42.490Z,1.73
2019-03-20T09:34:48.951Z,1.90
2019-03-20T09:36:55.432Z,1.40
2019-03-20T09:39:01.786Z,1.83
2019-03-20T09:41:09.694Z,2.20
2019-03-20T09:43:16.254Z,1.60
2019-03-20T09:45:24.048Z,1.10
2019-03-20T09:47:31.952Z,1.77
2019-03-20T09:49:38.310Z,2.30
2019-03-20T09:51:44.884Z,2.23
2019-03-20T09:53:53.279Z,1.90
2019-03-20T09:56:06.727Z,2.03
2019-03-20T09:58:13.283Z,3.30
2019-03-20T10:00:28.308Z,2.17
2019-03-20T10:02:34.609Z,2.70
2019-03-20T10:04:41.082Z,1.70
2019-03-20T10:06:47.551Z,1.73
2019-03-20T10:08:54.627Z,1.47
2019-03-20T10:11:01.253Z,1.77
2019-03-20T10:13:08.612Z,2.07
2019-03-20T10:15:29.816Z,2.13
2019-03-20T10:17:36.462Z,1.90
2019-03-20T10:19:43.146Z,1.43
2019-03-20T10:21:49.683Z,1.87
2019-03-20T10:23:56.764Z,1.70
2019-03-20T10:26:03.530Z,1.70
2019-03-20T10:28:10.324Z,1.93
2019-03-20T10:30:30.835Z,1.47
2019-03-20T10:32:37.678Z,1.70
2019-03-20T10:34:44.152Z,1.97
2019-03-20T10:36:50.540Z,2.17
2019-03-20T10:39:06.024Z,2.07
2019-03-20T10:41:05.553Z,1.83
2019-03-20T10:43:12.183Z,1.87
2019-03-20T10:45:23.288Z,1.17
2019-03-20T10:47:29.634Z,1.23
2019-03-20T10:49:37.672Z,1.43
2019-03-20T10:51:45.985Z,1.43
2019-03-20T10:53:52.528Z,1.50
2019-03-20T10:56:00.542Z,1.10
2019-03-20T10:58:08.730Z,2.33
2019-03-20T11:00:26.253Z,1.23
2019-03-20T11:02:33.819Z,1.17
2019-03-20T11:04:41.780Z,1.30
2019-03-20T11:06:48.542Z,1.00
2019-03-20T11:08:58.282Z,1.00
2019-03-20T11:11:05.011Z,1.10
2019-03-20T11:13:11.587Z,1.33
2019-03-20T11:15:23.089Z,1.47
2019-03-20T11:17:29.305Z,1.37
2019-03-20T11:19:36.014Z,1.53
2019-03-20T11:21:42.534Z,2.93
2019-03-20T11:23:49.306Z,1.40
2019-03-20T11:25:55.664Z,1.17
2019-03-20T11:28:02.145Z,1.43
2019-03-20T11:30:18.872Z,1.77
2019-03-20T11:32:26.332Z,1.63
2019-03-20T11:34:32.821Z,4.83
2019-03-20T11:36:39.402Z,1.43
2019-03-20T11:38:47.607Z,1.40
2019-03-20T11:40:54.243Z,1.43
2019-03-20T11:43:01.322Z,1.30
2019-03-20T11:45:11.172Z,1.40
2019-03-20T11:47:18.465Z,1.07
2019-03-20T11:49:24.926Z,1.40
2019-03-20T11:51:31.401Z,1.80
2019-03-20T11:53:39.606Z,1.50
2019-03-20T11:55:47.004Z,1.47
2019-03-20T11:57:55.042Z,2.00
2019-03-20T12:00:03.939Z,1.50
2019-03-20T12:02:10.583Z,1.93
2019-03-20T12:04:17.657Z,2.67
2019-03-20T12:06:27.080Z,5.10
2019-03-20T12:08:33.703Z,1.60
2019-03-20T12:10:40.013Z,2.10
2019-03-20T12:12:48.331Z,1.97
2019-03-20T12:14:56.432Z,1.63
2019-03-20T12:17:04.548Z,1.80
2019-03-20T12:19:10.906Z,2.00
2019-03-20T12:21:17.672Z,2.30
2019-03-20T12:23:26.242Z,2.00
2019-03-20T12:25:41.163Z,2.67
2019-03-20T12:27:47.612Z,2.03
2019-03-20T12:29:54.129Z,1.23
2019-03-20T12:32:02.493Z,1.90
2019-03-20T12:34:10.350Z,2.00
2019-03-20T12:36:16.858Z,2.50
2019-03-20T12:38:23.634Z,2.87
2019-03-20T12:40:34.183Z,2.17
2019-03-20T12:42:41.133Z,3.10
2019-03-20T12:44:47.630Z,2.90
2019-03-20T12:46:54.948Z,2.50
2019-03-20T12:49:01.643Z,2.77
2019-03-20T12:51:08.382Z,3.10
2019-03-20T12:53:25.182Z,3.23
2019-03-20T12:55:33.379Z,2.40
2019-03-20T12:57:40.133Z,3.23
2019-03-20T12:59:48.520Z,2.80
2019-03-20T13:01:55.163Z,3.00
2019-03-20T13:04:03.074Z,12.23
2019-03-20T13:06:11.233Z,2.40
2019-03-20T13:08:18.819Z,3.07
2019-03-20T13:10:27.123Z,2.97
2019-03-20T13:12:33.682Z,3.00
2019-03-20T13:14:44.721Z,4.13
2019-03-20T13:16:52.543Z,3.17
2019-03-20T13:18:59.392Z,2.67
2019-03-20T13:21:07.406Z,5.43
2019-03-20T13:23:25.070Z,4.27
2019-03-20T13:25:33.389Z,6.80
2019-03-20T13:27:41.792Z,6.37
2019-03-20T13:29:48.664Z,3.27
2019-03-20T13:31:55.407Z,2.80
2019-03-20T13:34:01.786Z,3.27
2019-03-20T13:36:08.814Z,2.60
2019-03-20T13:38:15.446Z,3.20
2019-03-20T13:40:22.320Z,2.80
2019-03-20T13:42:28.983Z,2.83
2019-03-20T13:44:35.756Z,2.83
2019-03-20T13:46:42.436Z,2.77
2019-03-20T13:48:49.372Z,2.50
2019-03-20T13:50:57.909Z,2.60
2019-03-20T13:53:06.037Z,3.27
2019-03-20T13:55:17.299Z,2.07
2019-03-20T13:57:23.669Z,2.33
2019-03-20T13:59:31.439Z,2.70
2019-03-20T14:01:38.327Z,4.23
2019-03-20T14:03:47.499Z,4.10
2019-03-20T14:05:55.357Z,3.40
2019-03-20T14:08:02.140Z,3.00
2019-03-20T14:10:24.589Z,3.23
2019-03-20T14:12:27.036Z,5.33
2019-03-20T14:14:33.457Z,4.00
2019-03-20T14:16:41.198Z,3.07
2019-03-20T14:18:47.899Z,3.83
2019-03-20T14:20:54.544Z,3.63
2019-03-20T14:23:01.837Z,2.43
2019-03-20T14:25:12.672Z,3.40
2019-03-20T14:27:19.260Z,3.07
2019-03-20T14:29:29.509Z,4.57
2019-03-20T14:31:36.239Z,4.23
2019-03-20T14:33:42.899Z,4.70
2019-03-20T14:35:50.552Z,5.63
2019-03-20T14:37:57.170Z,4.93
2019-03-20T14:40:04.828Z,4.47
2019-03-20T14:42:14.257Z,3.57
2019-03-20T14:44:20.806Z,3.13
2019-03-20T14:46:28.780Z,2.57
2019-03-20T14:48:35.940Z,12.30
2019-03-20T14:50:42.686Z,4.40
2019-03-20T14:52:49.362Z,4.07
2019-03-20T14:54:56.309Z,5.57
2019-03-20T14:57:02.993Z,19.07
2019-03-20T14:59:09.350Z,6.30
2019-03-20T15:01:16.302Z,12.63
2019-03-20T15:03:23.396Z,11.87
2019-03-20T15:05:30.300Z,6.30
2019-03-20T15:07:38.255Z,7.17
2019-03-20T15:09:45.556Z,5.30
2019-03-20T15:11:54.024Z,3.93
2019-03-20T15:14:00.653Z,3.30
2019-03-20T15:16:13.673Z,7.27
2019-03-20T15:18:20.224Z,3.37
2019-03-20T15:20:26.994Z,3.33
2019-03-20T15:22:35.555Z,3.90
2019-03-20T15:24:42.690Z,5.60
2019-03-20T15:26:49.438Z,6.17
2019-03-20T15:29:01.498Z,3.83
2019-03-20T15:31:09.458Z,34.47
2019-03-20T15:33:16.570Z,12.53
2019-03-20T15:35:23.433Z,8.47
2019-03-20T15:37:30.669Z,40.30
2019-03-20T15:39:37.604Z,40.43
2019-03-20T15:41:45.001Z,40.27
2019-03-20T15:44:01.962Z,72.77
2019-03-20T15:46:01.299Z,65.57
2019-03-20T15:48:08.489Z,30.20
2019-03-20T15:50:18.518Z,20.77
2019-03-20T15:52:26.645Z,7.07
2019-03-20T15:54:33.814Z,5.67
2019-03-20T15:56:40.550Z,7.13
2019-03-20T15:58:50.426Z,4.50
2019-03-20T16:01:01.142Z,4.47
2019-03-20T16:03:14.895Z,10.07
2019-03-20T16:05:26.422Z,13.57
2019-03-20T16:07:36.421Z,8.27
2019-03-20T16:09:46.651Z,12.23
2019-03-20T16:11:56.875Z,9.43
2019-03-20T16:14:06.601Z,6.47
2019-03-20T16:16:18.621Z,7.60
2019-03-20T16:18:30.260Z,5.70
2019-03-20T16:20:41.388Z,3.80
2019-03-20T16:22:55.940Z,4.90
2019-03-20T16:25:03.927Z,5.63
2019-03-20T16:27:11.808Z,13.83
2019-03-20T16:29:19.670Z,11.57
2019-03-20T16:31:27.951Z,30.60
2019-03-20T16:33:42.382Z,9.17
2019-03-20T16:35:51.737Z,36.80
2019-03-20T16:37:59.771Z,15.40
2019-03-20T16:40:15.330Z,98.87
2019-03-20T16:42:27.699Z,92.33
2019-03-20T16:44:35.821Z,55.60
2019-03-20T16:46:45.482Z,10.93
2019-03-20T16:48:53.569Z,22.20
2019-03-20T16:51:03.649Z,11.83
2019-03-20T16:53:12.847Z,10.83
2019-03-20T16:55:22.880Z,19.23
2019-03-20T16:57:32.204Z,9.40
2019-03-20T16:59:43.234Z,7.83
2019-03-20T17:01:53.736Z,17.40
2019-03-20T17:04:05.684Z,15.13
2019-03-20T17:06:18.058Z,7.10
2019-03-20T17:08:33.924Z,6.87
2019-03-20T17:10:47.809Z,15.07
2019-03-20T17:12:59.847Z,11.03
2019-03-20T17:15:19.287Z,10.10
2019-03-20T17:17:29.000Z,9.37
2019-03-20T17:19:40.706Z,11.43
2019-03-20T17:21:49.733Z,13.60
2019-03-20T17:23:57.911Z,20.50
2019-03-20T17:26:05.349Z,51.20
2019-03-20T17:28:19.590Z,14.00
2019-03-20T17:30:39.751Z,9.03
2019-03-20T17:32:48.131Z,9.70
2019-03-20T17:34:58.156Z,9.70
2019-03-20T17:37:06.023Z,11.77
2019-03-20T17:39:19.552Z,10.80
2019-03-20T17:41:36.285Z,11.07
2019-03-20T17:43:36.570Z,19.27
2019-03-20T17:45:44.934Z,17.17
2019-03-20T17:47:52.050Z,10.80
2019-03-20T17:49:59.758Z,10.13
2019-03-20T17:52:11.258Z,8.77
2019-03-20T17:54:26.256Z,24.83
2019-03-20T17:56:38.448Z,16.00
2019-03-20T17:58:51.459Z,14.40
2019-03-20T18:01:01.199Z,9.23
2019-03-20T18:03:14.233Z,7.67
2019-03-20T18:05:27.495Z,6.90
2019-03-20T18:07:40.860Z,6.30
2019-03-20T18:09:54.608Z,5.73
2019-03-20T18:12:08.384Z,21.10
2019-03-20T18:14:21.879Z,81.13
2019-03-20T18:16:33.680Z,18.87
2019-03-20T18:18:49.838Z,13.83
2019-03-20T18:21:06.333Z,30.10
2019-03-20T18:23:19.604Z,6.90
2019-03-20T18:25:32.761Z,6.80
2019-03-20T18:27:46.455Z,8.53
2019-03-20T18:30:01.457Z,5.97
2019-03-20T18:32:11.695Z,6.47
2019-03-20T18:34:21.110Z,6.10
2019-03-20T18:36:35.703Z,7.30
2019-03-20T18:38:49.712Z,12.83
2019-03-20T18:41:03.758Z,12.30
2019-03-20T18:43:15.197Z,8.20
2019-03-20T18:45:26.479Z,8.03
2019-03-20T18:47:33.978Z,7.00
2019-03-20T18:49:41.102Z,8.73
2019-03-20T18:51:48.311Z,5.90
2019-03-20T18:53:55.214Z,5.77
2019-03-20T18:56:02.717Z,5.90
2019-03-20T18:58:09.983Z,6.30
2019-03-20T19:00:31.712Z,5.50
2019-03-20T19:02:39.737Z,4.40
2019-03-20T19:04:47.653Z,4.30
2019-03-20T19:06:55.498Z,4.50
2019-03-20T19:09:03.289Z,5.40
2019-03-20T19:11:14.142Z,5.63
2019-03-20T19:13:24.390Z,5.63
2019-03-20T19:15:34.195Z,25.73
2019-03-20T19:17:42.840Z,44.90
2019-03-20T19:19:51.596Z,24.07
2019-03-20T19:21:59.432Z,8.83
2019-03-20T19:24:06.588Z,5.67
2019-03-20T19:26:13.897Z,5.60
2019-03-20T19:28:21.101Z,7.00
2019-03-20T19:30:31.949Z,8.03
2019-03-20T19:32:40.202Z,5.93
2019-03-20T19:34:47.177Z,4.83
2019-03-20T19:36:54.362Z,5.23
2019-03-20T19:39:01.556Z,5.63
2019-03-20T19:41:10.262Z,7.37
2019-03-20T19:43:22.760Z,5.90
2019-03-20T19:45:31.180Z,5.60
2019-03-20T19:47:45.319Z,7.10
2019-03-20T19:52:13.029Z,7.03
2019-03-20T19:54:21.301Z,7.70
2019-03-20T19:56:28.840Z,6.47
2019-03-20T19:58:42.715Z,5.90
2019-03-20T20:00:59.293Z,6.90
2019-03-20T20:03:06.595Z,5.63
2019-03-20T20:05:16.186Z,5.90
2019-03-20T20:07:23.484Z,5.13
2019-03-20T20:09:30.728Z,5.50
2019-03-20T20:11:37.698Z,5.17
2019-03-20T20:13:46.779Z,5.37
2019-03-20T20:15:53.917Z,5.63
2019-03-20T20:18:01.066Z,5.33
2019-03-20T20:20:20.360Z,5.93
2019-03-20T20:22:27.497Z,6.40
2019-03-20T20:24:34.958Z,6.27
2019-03-20T20:26:42.238Z,4.67
2019-03-20T20:28:48.958Z,11.10
2019-03-20T20:30:56.286Z,15.77
2019-03-20T20:33:03.329Z,37.20
2019-03-20T20:35:12.658Z,17.27
2019-03-20T20:37:21.485Z,5.43
2019-03-20T20:39:28.896Z,4.80
2019-03-20T20:41:37.593Z,5.70
2019-03-20T20:44:06.761Z,4.23
2019-03-20T20:46:16.669Z,3.90
2019-03-20T20:48:24.338Z,4.83
2019-03-20T20:50:33.383Z,5.13
2019-03-20T20:52:41.311Z,2.90
2019-03-20T20:54:48.929Z,4.00
2019-03-20T20:56:56.250Z,4.17
2019-03-20T20:59:06.226Z,3.90
2019-03-20T21:01:14.287Z,3.50
2019-03-20T21:03:21.402Z,3.90
2019-03-20T21:05:28.731Z,4.70
2019-03-20T21:07:36.452Z,4.00
2019-03-20T21:09:44.704Z,4.80
2019-03-20T21:11:52.041Z,4.20
2019-03-20T21:14:00.492Z,5.60
2019-03-20T21:16:07.590Z,4.83
2019-03-20T21:18:35.254Z,4.93
2019-03-20T21:20:42.459Z,5.63
2019-03-20T21:23:26.526Z,5.70
2019-03-20T21:25:34.035Z,4.97
2019-03-20T21:28:16.376Z,5.63
2019-03-20T21:30:49.310Z,5.43
2019-03-20T21:33:11.411Z,6.23
2019-03-20T21:35:45.897Z,5.57
2019-03-20T21:38:07.914Z,5.53
2019-03-20T21:40:17.217Z,4.83
2019-03-20T21:42:53.268Z,5.17
2019-03-20T21:45:37.819Z,5.60
2019-03-20T21:47:46.461Z,5.33
2019-03-20T21:49:53.415Z,6.53
2019-03-20T21:52:01.730Z,5.77
2019-03-20T21:54:16.601Z,5.57
2019-03-20T21:57:00.145Z,4.83
2019-03-20T21:59:20.257Z,4.97
2019-03-20T22:01:59.758Z,6.00
2019-03-20T22:04:12.125Z,5.30
2019-03-20T22:06:55.880Z,5.40
2019-03-20T22:09:03.234Z,6.00
2019-03-20T22:11:33.796Z,6.73
2019-03-20T22:13:51.862Z,5.53
2019-03-20T22:16:25.439Z,6.23
2019-03-20T22:19:07.525Z,6.00
2019-03-20T22:21:43.802Z,5.27
2019-03-20T22:24:19.544Z,6.23
2019-03-20T22:26:48.425Z,6.00
2019-03-20T22:29:26.093Z,6.20
2019-03-20T22:31:38.236Z,6.17
2019-03-20T22:34:40.612Z,6.47
2019-03-20T22:36:48.229Z,5.73
2019-03-20T22:39:11.984Z,6.30
2019-03-20T22:41:40.565Z,5.47
2019-03-20T22:43:53.995Z,5.57
2019-03-20T22:46:33.521Z,5.30
2019-03-20T22:49:04.781Z,5.40
2019-03-20T22:51:49.024Z,5.50
2019-03-20T22:54:36.247Z,6.00
2019-03-20T22:57:07.729Z,6.03
2019-03-20T22:59:14.057Z,5.70
2019-03-20T23:01:44.282Z,5.67
2019-03-20T23:04:14.405Z,5.93
2019-03-20T23:06:20.958Z,5.40
2019-03-20T23:08:28.759Z,6.47
2019-03-20T23:10:36.546Z,5.50
2019-03-20T23:12:44.768Z,5.50
2019-03-20T23:14:51.548Z,6.57
2019-03-20T23:17:01.414Z,5.73
2019-03-20T23:19:10.539Z,5.60
2019-03-20T23:21:18.210Z,5.40
2019-03-20T23:23:26.190Z,5.47
2019-03-20T23:25:32.762Z,6.20
2019-03-20T23:27:39.121Z,5.47
2019-03-20T23:29:45.682Z,6.17
2019-03-20T23:31:52.059Z,6.13
2019-03-20T23:34:02.312Z,6.53
2019-03-20T23:36:10.625Z,6.07
2019-03-20T23:38:17.218Z,6.23
2019-03-20T23:40:26.430Z,6.37
2019-03-20T23:42:35.124Z,5.80
2019-03-20T23:44:42.731Z,6.20
2019-03-20T23:46:49.764Z,6.20
2019-03-20T23:49:02.496Z,6.53
2019-03-20T23:51:18.913Z,6.27
2019-03-20T23:53:25.629Z,6.17
2019-03-20T23:55:32.146Z,6.30
2019-03-20T23:57:38.617Z,6.23
2019-03-20T23:59:47.428Z,6.20
